Ampthill, Virginia
Current Conditions -  °F | °C
As of 2:54 AM on Friday 24 Oct 2014 (Local Time) from KRIC Reporting Station
Clear Clear  
Wind Chill: 12°   Ceiling: Unl
Heat Index: 12°   Visibility: 10mi
Dew Point:   Wind: 8mph
Humidity: 66%   Direction: 300°WNW
Pressure: 29.94"   Gusts: NA
Location:  37.4513°N, 77.4708°W
Report Text: KRIC 240654Z 30007KT 10SM CLR 12/06 A2994 RMK AO2 SLP143 T01170056
Loading
Personal Weather Stations






























Interactive Weather Map
Tropical Storm Tracking
New forecast layout! Learn more

10-Day Weather Forecast

Advertisements
Track Severe Weather on mobile